Albion, ID

7:54 PM MST on December 25, 2014 (GMT -0700)
MesoWest MALTA ID US AGRIMET | Change Station
CLOSE
Current Station
Personal Weather Station
Location: Albion, ID
Elevation: 4410 ft
Nearby Weather Stations
Active Advisory: Winter Storm Warning Active Notice: Record Report, Local Storm Report

Elev 4410 ft 42.44 °N, 113.41 °W | Updated 54 minutes ago

Overcast
Overcast
27 °F
Feels Like 13 °F
N
22
Wind Variable Wind from WSW
Gusts 30.0 mph

Today
High -- | Low -- °F
--% Chance of Precip.
Yesterday
High -- | Low -- °F
Precip. -- in
8:01 AM 5:06 PM
Waxing Crescent, 21% visible
Pressure 29.91 in
Visibility 10.0 miles
Clouds Overcast 8500 ft
Windchill 13 °F
Dew Point 24 °F
Humidity 89%
Rainfall 0.00 in
Snow Depth Not available.
UV 0 out of 12
Pollen .10 out of 12
Air Quality Not available.
Flu Activity Not available.
METAR KBYI 260153Z AUTO 27014G21KT 10SM OVC085 M02/M06 A2986 RMK AO2 SLP127 T10221061

More Conditions Fewer Conditions

Pressure 29.91 in
Visibility 10.0 miles
Clouds Overcast 8500 ft
Windchill 13 °F
Dew Point 24 °F
Humidity 89%
Rainfall 0.00 in
Snow Depth Not available.
UV 0 out of 12
Pollen .10 out of 12
Air Quality Not available.
Flu Activity Not available.
METAR KBYI 260153Z AUTO 27014G21KT 10SM OVC085 M02/M06 A2986 RMK AO2 SLP127 T10221061

More Conditions Fewer Conditions

10-Day Weather Forecast

Almanac

Astronomy

Dec. 25, 2014 Rise Set
Actual Time
Civil Twilight
Nautical Twilight
Astronomical Twilight
Moon
Length of Visible Light
Length of Day
Tomorrow will be .
, % of the Moon is Illuminated

Today's Extremes

State Highs State Lows

Community

WunderPhotos

Upload Photos

1,780,519 photos uploaded!

WunderBlogs® & News

Nearby

Air Quality

  Air Quality AQ Index Pollutant
Not available.

Snow Depth

Station Depth Elevation

Earthquake Activity

City Distance Mag. Time & Date
Minimum magnitude displayed is 2.5.

Coastal Water Temperatures

Place Temperature

Nearby Weather Stations